Terminal Aerodrome Forecast
Issued by NWS Bismarck, ND

Home | Current Version | Previous Version | Text Only | Print | Product List | Glossary Off
Versions: 1 2 3 4 5 6 7 8 9 10 11 12 13 14 15 16

000
FTUS43 KBIS 231700
TAFISN
TAF
KISN 231720Z 2318/2418 16012KT P6SM VCSH BKN070
     FM232000 12011KT P6SM SCT100
     FM240300 08008KT P6SM SCT210
     FM241600 10008KT P6SM SCT100=

USA.gov is the U.S. government's official web portal to all federal, state and local government web resources and services.